createdAt,value
2018-12-11T00:00:40.796Z,79.24
2018-12-11T00:01:40.776Z,78.48
2018-12-11T00:02:40.757Z,77.15
2018-12-11T00:03:40.743Z,75.45
2018-12-11T00:04:40.724Z,74.32
2018-12-11T00:05:40.458Z,73.28
2018-12-11T00:06:40.684Z,71.11
2018-12-11T00:07:40.665Z,68.84
2018-12-11T00:08:40.647Z,67.7
2018-12-11T00:09:40.628Z,67.79
2018-12-11T00:10:40.608Z,66.66
2018-12-11T00:11:40.589Z,66.66
2018-12-11T00:12:40.571Z,66.75
2018-12-11T00:13:40.555Z,67.22
2018-12-11T00:14:40.286Z,67.32
2018-12-11T00:15:40.515Z,66.66
2018-12-11T00:16:40.497Z,67.32
2018-12-11T00:17:40.480Z,67.13
2018-12-11T00:18:40.461Z,67.03
2018-12-11T00:19:40.442Z,68.27
2018-12-11T00:20:40.423Z,69.31
2018-12-11T00:21:40.410Z,71.01
2018-12-11T00:22:40.390Z,72.52
2018-12-11T00:23:40.367Z,73.56
2018-12-11T00:24:40.349Z,75.07
2018-12-11T00:25:40.330Z,75.64
2018-12-11T00:26:40.313Z,76.87
2018-12-11T00:27:40.295Z,77.15
2018-12-11T00:28:40.279Z,77.91
2018-12-11T00:29:40.256Z,78.29
2018-12-11T00:30:39.988Z,78.9
2018-12-11T00:31:40.218Z,78.61
2018-12-11T00:32:40.201Z,79.37
2018-12-11T00:33:40.181Z,78.76
2018-12-11T00:34:40.162Z,79.05
2018-12-11T00:35:40.144Z,78.99
2018-12-11T00:36:40.125Z,79.37
2018-12-11T00:37:40.107Z,80.32
2018-12-11T00:38:40.088Z,79.94
2018-12-11T00:39:40.074Z,81.03
2018-12-11T00:40:40.054Z,81.64
2018-12-11T00:41:40.033Z,81.26
2018-12-11T00:42:40.016Z,80.79
2018-12-11T00:43:39.997Z,82.21
2018-12-11T00:44:39.978Z,82.4
2018-12-11T00:45:39.963Z,82.31
2018-12-11T00:46:39.945Z,81.93
2018-12-11T00:47:39.931Z,81.36
2018-12-11T00:48:39.912Z,81.64
2018-12-11T00:49:39.889Z,81.36
2018-12-11T00:50:39.870Z,82.4
2018-12-11T00:51:39.850Z,83.53
2018-12-11T00:52:39.831Z,84.58
2018-12-11T00:53:39.814Z,85.05
2018-12-11T00:54:39.797Z,85.14
2018-12-11T00:55:39.781Z,85.14
2018-12-11T00:56:39.759Z,85.05
2018-12-11T00:57:39.739Z,84.39
2018-12-11T00:58:39.723Z,83.25
2018-12-11T00:59:39.704Z,83.63
2018-12-11T01:00:39.687Z,83.53
2018-12-11T01:01:39.663Z,81.74
2018-12-11T01:02:39.646Z,81.55
2018-12-11T01:03:39.633Z,81.36
2018-12-11T01:04:39.624Z,81.74
2018-12-11T01:05:39.593Z,81.36
2018-12-11T01:06:39.574Z,82.02
2018-12-11T01:07:39.312Z,81.55
2018-12-11T01:08:39.542Z,81.55
2018-12-11T01:09:39.523Z,80.88
2018-12-11T01:10:39.498Z,81.55
2018-12-11T01:11:39.482Z,81.36
2018-12-11T01:12:39.461Z,81.64
2018-12-11T01:13:39.448Z,82.12
2018-12-11T01:14:39.181Z,82.31
2018-12-11T01:15:39.409Z,82.68
2018-12-11T01:16:39.147Z,82.78
2018-12-11T01:17:39.372Z,82.4
2018-12-11T01:18:39.103Z,81.55
2018-12-11T01:19:39.332Z,80.79
2018-12-11T01:20:39.316Z,80.04
2018-12-11T01:21:39.298Z,79.75
2018-12-11T01:22:39.284Z,78.61
2018-12-11T01:23:39.264Z,77.48
2018-12-11T01:24:39.242Z,74.26
2018-12-11T01:25:39.223Z,73.69
2018-12-11T01:26:39.205Z,71.61
2018-12-11T01:27:38.937Z,70.39
2018-12-11T01:28:39.168Z,69.44
2018-12-11T01:29:39.148Z,68.68
2018-12-11T01:30:39.138Z,68.49
2018-12-11T01:31:39.112Z,67.51
2018-12-11T01:32:39.104Z,66.22
2018-12-11T01:33:39.079Z,63.67
2018-12-11T01:34:39.061Z,62.4
2018-12-11T01:35:39.038Z,60.52
2018-12-11T01:36:39.025Z,57.96
2018-12-11T01:37:39.003Z,56.07
2018-12-11T01:38:38.984Z,54.37
2018-12-11T01:39:38.963Z,53.99
2018-12-11T01:40:38.947Z,53.05
2018-12-11T01:41:38.931Z,51.43
2018-12-11T01:42:38.906Z,49.64
2018-12-11T01:43:38.891Z,47.75
2018-12-11T01:44:38.869Z,46.61
2018-12-11T01:45:38.852Z,45.57
2018-12-11T01:46:38.982Z,44.34
2018-12-11T01:47:38.816Z,43.3
2018-12-11T01:48:38.549Z,42.83
2018-12-11T01:49:38.778Z,42.17
2018-12-11T01:50:38.758Z,41.41
2018-12-11T01:51:38.741Z,40.66
2018-12-11T01:52:38.721Z,39.71
2018-12-11T01:53:38.704Z,39.33
2018-12-11T01:54:38.688Z,38.76
2018-12-11T01:55:38.665Z,38.2
2018-12-11T01:56:38.647Z,37.54
2018-12-11T01:57:38.629Z,37.54
2018-12-11T01:58:38.611Z,37.73
2018-12-11T01:59:38.595Z,37.63
2018-12-11T02:00:38.572Z,37.54
2018-12-11T02:01:38.553Z,36.59
2018-12-11T02:02:38.535Z,35.46
2018-12-11T02:03:38.518Z,35.27
2018-12-11T02:04:38.502Z,34.42
2018-12-11T02:05:38.230Z,34.13
2018-12-11T02:06:38.463Z,33.37
2018-12-11T02:07:38.491Z,32.62
2018-12-11T02:08:38.426Z,32.34
2018-12-11T02:09:38.407Z,32.34
2018-12-11T02:10:38.386Z,32.15
2018-12-11T02:11:38.363Z,32.05
2018-12-11T02:12:38.349Z,31.77
2018-12-11T02:13:38.334Z,31.96
2018-12-11T02:14:38.309Z,31.86
2018-12-11T02:15:38.293Z,31.58
2018-12-11T02:16:38.275Z,31.2
2018-12-11T02:17:38.258Z,31.1
2018-12-11T02:18:38.235Z,31.01
2018-12-11T02:19:38.222Z,30.91
2018-12-11T02:20:38.234Z,30.82
2018-12-11T02:21:44.448Z,30.82
2018-12-11T02:22:38.166Z,30.91
2018-12-11T02:23:38.144Z,31.29
2018-12-11T02:24:38.126Z,31.58
2018-12-11T02:25:38.104Z,31.86
2018-12-11T02:26:38.088Z,32.24
2018-12-11T02:27:38.069Z,32.62
2018-12-11T02:28:38.050Z,32.71
2018-12-11T02:29:38.031Z,32.62
2018-12-11T02:30:38.038Z,32.62
2018-12-11T02:31:38.003Z,32.53
2018-12-11T02:32:37.975Z,32.34
2018-12-11T02:33:37.721Z,32.53
2018-12-11T02:34:37.942Z,32.53
2018-12-11T02:35:37.919Z,32.62
2018-12-11T02:36:37.911Z,33
2018-12-11T02:37:37.881Z,33.75
2018-12-11T02:38:37.864Z,33.94
2018-12-11T02:39:37.853Z,34.32
2018-12-11T02:40:37.834Z,35.08
2018-12-11T02:41:37.811Z,35.46
2018-12-11T02:42:37.790Z,36.31
2018-12-11T02:43:37.775Z,36.31
2018-12-11T02:44:37.752Z,37.25
2018-12-11T02:45:37.736Z,38.01
2018-12-11T02:46:37.474Z,38.57
2018-12-11T02:47:37.696Z,38.67
2018-12-11T02:48:37.675Z,39.14
2018-12-11T02:49:37.660Z,39.52
2018-12-11T02:50:37.392Z,39.71
2018-12-11T02:51:37.622Z,40.28
2018-12-11T02:52:37.355Z,40.28
2018-12-11T02:55:46.062Z,41.79
2018-12-11T02:56:45.801Z,42.17
2018-12-11T02:57:46.024Z,42.27
2018-12-11T02:58:45.998Z,41.7
2018-12-11T02:59:45.985Z,40.47
2018-12-11T03:00:45.961Z,40.28
2018-12-11T03:01:45.955Z,39.52
2018-12-11T03:02:45.928Z,38.29
2018-12-11T03:03:45.908Z,37.44
2018-12-11T03:04:45.888Z,36.59
2018-12-11T03:05:46.175Z,35.74
2018-12-11T03:06:45.850Z,35.27
2018-12-11T03:07:45.833Z,35.36
2018-12-11T03:08:45.814Z,35.27
2018-12-11T03:09:45.797Z,34.51
2018-12-11T03:10:45.879Z,34.04
2018-12-11T03:11:45.831Z,33.56
2018-12-11T03:12:45.737Z,33.28
2018-12-11T03:13:45.729Z,32.62
2018-12-11T03:14:45.700Z,31.86
2018-12-11T03:15:45.681Z,30.82
2018-12-11T03:16:45.677Z,30.82
2018-12-11T03:17:45.655Z,30.54
2018-12-11T03:18:45.627Z,30.07
2018-12-11T03:19:45.606Z,29.97
2018-12-11T03:20:45.598Z,29.6
2018-12-11T03:21:45.573Z,29.22
2018-12-11T03:22:45.554Z,29.41
2018-12-11T03:23:45.556Z,29.5
2018-12-11T03:24:45.514Z,29.6
2018-12-11T03:25:45.496Z,29.79
2018-12-11T03:26:45.477Z,30.07
2018-12-11T03:27:45.462Z,30.54
2018-12-11T03:28:45.445Z,30.63
2018-12-11T03:29:45.419Z,30.73
2018-12-11T03:30:45.422Z,30.91
2018-12-11T03:31:45.391Z,30.73
2018-12-11T03:32:45.391Z,31.39
2018-12-11T03:33:45.349Z,30.91
2018-12-11T03:34:45.329Z,29.97
2018-12-11T03:35:45.326Z,29.69
2018-12-11T03:36:45.288Z,29.5
2018-12-11T03:37:45.270Z,28.93
2018-12-11T03:38:45.056Z,29.03
2018-12-11T03:39:45.234Z,28.27
2018-12-11T03:40:45.215Z,28.36
2018-12-11T03:41:45.193Z,27.89
2018-12-11T03:42:45.183Z,27.61
2018-12-11T03:43:44.920Z,27.89
2018-12-11T03:44:45.142Z,27.42
2018-12-11T03:45:44.873Z,27.23
2018-12-11T03:46:45.103Z,27.14
2018-12-11T03:47:45.083Z,26.85
2018-12-11T03:48:45.070Z,26.57
2018-12-11T03:49:45.047Z,26.47
2018-12-11T03:50:45.033Z,26.85
2018-12-11T03:51:45.014Z,26.66
2018-12-11T03:52:44.996Z,26.95
2018-12-11T03:53:44.975Z,27.14
2018-12-11T03:54:44.703Z,26.85
2018-12-11T03:55:44.933Z,27.23
2018-12-11T03:56:44.923Z,27.42
2018-12-11T03:57:44.915Z,27.33
2018-12-11T03:58:44.881Z,27.33
2018-12-11T03:59:44.861Z,27.33
2018-12-11T04:00:44.839Z,27.42
2018-12-11T04:01:44.830Z,27.33
2018-12-11T04:02:44.799Z,27.61
2018-12-11T04:03:44.785Z,27.51
2018-12-11T04:04:44.768Z,27.98
2018-12-11T04:05:44.746Z,28.46
2018-12-11T04:06:44.728Z,28.84
2018-12-11T04:07:44.735Z,28.84
2018-12-11T04:08:44.693Z,29.97
2018-12-11T04:09:44.686Z,29.97
2018-12-11T04:10:44.656Z,30.73
2018-12-11T04:11:44.633Z,31.2
2018-12-11T04:12:44.615Z,30.82
2018-12-11T04:13:44.346Z,30.82
2018-12-11T04:14:44.582Z,30.26
2018-12-11T04:15:44.565Z,30.07
2018-12-11T04:16:44.545Z,29.97
2018-12-11T04:17:44.537Z,29.97
2018-12-11T04:18:44.509Z,29.79
2018-12-11T04:19:44.481Z,29.69
2018-12-11T04:20:44.466Z,29.6
2018-12-11T04:21:44.446Z,29.5
2018-12-11T04:22:44.433Z,29.5
2018-12-11T04:23:44.415Z,29.03
2018-12-11T04:24:44.143Z,28.84
2018-12-11T04:25:44.371Z,28.65
2018-12-11T04:26:44.356Z,28.17
2018-12-11T04:27:44.338Z,27.7
2018-12-11T04:28:44.321Z,27.89
2018-12-11T04:29:44.294Z,27.61
2018-12-11T04:30:44.290Z,27.42
2018-12-11T04:31:44.264Z,27.23
2018-12-11T04:32:44.238Z,26.85
2018-12-11T04:33:44.221Z,26.66
2018-12-11T04:34:44.208Z,25.9
2018-12-11T04:35:44.830Z,25.62
2018-12-11T04:36:44.166Z,25.71
2018-12-11T04:37:44.146Z,25.52
2018-12-11T04:38:43.879Z,25.15
2018-12-11T04:39:44.110Z,24.68
2018-12-11T04:40:44.089Z,24.96
2018-12-11T04:41:44.143Z,24.96
2018-12-11T04:42:44.052Z,24.68
2018-12-11T04:43:44.040Z,24.21
2018-12-11T04:44:44.015Z,23.92
2018-12-11T04:45:43.998Z,23.64
2018-12-11T04:46:43.984Z,22.6
2018-12-11T04:47:43.958Z,22.22
2018-12-11T04:48:43.938Z,21.84
2018-12-11T04:49:43.986Z,21.37
2018-12-11T04:50:43.902Z,21.18
2018-12-11T04:51:43.881Z,20.51
2018-12-11T04:52:43.866Z,19.95
2018-12-11T04:53:43.847Z,19.57
2018-12-11T04:54:43.828Z,19
2018-12-11T04:55:43.811Z,18.81
2018-12-11T04:56:43.792Z,18.24
2018-12-11T04:57:43.769Z,18.15
2018-12-11T04:58:43.753Z,18.34
2018-12-11T04:59:43.736Z,18.62
2018-12-11T05:00:43.717Z,18.81
2018-12-11T05:01:43.696Z,19
2018-12-11T05:02:43.675Z,19.29
2018-12-11T05:03:43.659Z,19.76
2018-12-11T05:04:43.638Z,20.23
2018-12-11T05:05:43.620Z,20.23
2018-12-11T05:06:43.606Z,20.61
2018-12-11T05:07:43.586Z,20.89
2018-12-11T05:08:43.569Z,21.27
2018-12-11T05:09:43.542Z,21.46
2018-12-11T05:10:43.525Z,22.13
2018-12-11T05:11:43.513Z,22.5
2018-12-11T05:12:43.487Z,22.6
2018-12-11T05:13:43.468Z,22.69
2018-12-11T05:14:43.450Z,22.6
2018-12-11T05:15:43.433Z,23.26
2018-12-11T05:16:43.413Z,22.97
2018-12-11T05:17:43.396Z,23.16
2018-12-11T05:18:43.375Z,23.16
2018-12-11T05:19:43.359Z,23.35
2018-12-11T05:20:43.338Z,23.54
2018-12-11T05:21:43.325Z,23.64
2018-12-11T05:22:43.300Z,24.11
2018-12-11T05:23:43.283Z,24.3
2018-12-11T05:24:43.266Z,24.49
2018-12-11T05:25:43.312Z,24.77
2018-12-11T05:26:43.225Z,24.49
2018-12-11T05:27:43.206Z,24.58
2018-12-11T05:28:43.189Z,24.58
2018-12-11T05:29:43.171Z,24.58
2018-12-11T05:30:43.149Z,24.68
2018-12-11T05:31:43.131Z,25.05
2018-12-11T05:32:43.113Z,25.05
2018-12-11T05:33:43.093Z,24.87
2018-12-11T05:34:43.084Z,24.58
2018-12-11T05:35:43.058Z,24.58
2018-12-11T05:36:43.043Z,24.49
2018-12-11T05:37:43.020Z,24.68
2018-12-11T05:38:43.004Z,24.77
2018-12-11T05:39:42.982Z,25.62
2018-12-11T05:40:42.716Z,26.19
2018-12-11T05:41:42.945Z,26.38
2018-12-11T05:42:42.927Z,26.85
2018-12-11T05:43:42.913Z,27.33
2018-12-11T05:44:42.890Z,27.7
2018-12-11T05:45:42.869Z,28.08
2018-12-11T05:46:42.856Z,28.17
2018-12-11T05:47:42.839Z,28.84
2018-12-11T05:48:42.814Z,28.93
2018-12-11T05:49:42.798Z,29.22
2018-12-11T05:50:42.779Z,29.41
2018-12-11T05:51:42.763Z,29.88
2018-12-11T05:52:42.514Z,29.79
2018-12-11T05:53:42.722Z,29.79
2018-12-11T05:54:42.454Z,30.07
2018-12-11T05:55:42.686Z,30.63
2018-12-11T05:56:42.664Z,30.82
2018-12-11T05:57:42.649Z,30.63
2018-12-11T05:58:42.628Z,31.01
2018-12-11T05:59:42.617Z,31.39
2018-12-11T06:00:42.591Z,31.2
2018-12-11T06:01:42.574Z,31.96
2018-12-11T06:02:42.553Z,32.05
2018-12-11T06:03:42.534Z,31.86
2018-12-11T06:04:42.518Z,32.24
2018-12-11T06:05:42.505Z,32.15
2018-12-11T06:06:42.586Z,32.15
2018-12-11T06:07:42.263Z,32.62
2018-12-11T06:08:42.443Z,33.09
2018-12-11T06:09:42.422Z,32.62
2018-12-11T06:10:42.406Z,32.15
2018-12-11T06:11:42.388Z,31.77
2018-12-11T06:12:42.368Z,30.82
2018-12-11T06:13:42.350Z,31.2
2018-12-11T06:14:42.328Z,29.97
2018-12-11T06:15:42.310Z,29.5
2018-12-11T06:16:42.298Z,29.31
2018-12-11T06:17:42.273Z,28.93
2018-12-11T06:18:42.254Z,28.65
2018-12-11T06:19:42.240Z,28.08
2018-12-11T06:20:42.224Z,27.61
2018-12-11T06:21:42.199Z,27.42
2018-12-11T06:22:42.183Z,26.85
2018-12-11T06:23:41.915Z,26.57
2018-12-11T06:24:42.146Z,26.47
2018-12-11T06:25:42.126Z,26.09
2018-12-11T06:26:41.859Z,26.28
2018-12-11T06:27:42.086Z,26
2018-12-11T06:28:42.073Z,25.71
2018-12-11T06:29:42.056Z,25.43
2018-12-11T06:30:42.079Z,25.15
2018-12-11T06:31:42.010Z,25.24
2018-12-11T06:32:41.751Z,25.15
2018-12-11T06:33:41.981Z,24.87
2018-12-11T06:34:41.957Z,24.96
2018-12-11T06:35:41.938Z,24.87
2018-12-11T06:36:41.920Z,25.24
2018-12-11T06:37:41.903Z,25.81
2018-12-11T06:38:41.883Z,25.52
2018-12-11T06:39:41.864Z,25.71
2018-12-11T06:40:41.605Z,25.9
2018-12-11T06:41:41.828Z,25.52
2018-12-11T06:42:41.808Z,25.62
2018-12-11T06:43:41.791Z,25.05
2018-12-11T06:44:41.520Z,25.05
2018-12-11T06:45:41.760Z,25.24
2018-12-11T06:46:41.484Z,25.81
2018-12-11T06:47:41.717Z,25.9
2018-12-11T06:48:41.699Z,25.9
2018-12-11T06:49:41.675Z,26.95
2018-12-11T06:50:41.657Z,27.51
2018-12-11T06:51:41.642Z,28.93
2018-12-11T06:52:41.625Z,29.97
2018-12-11T06:53:41.603Z,31.2
2018-12-11T06:54:41.582Z,31.77
2018-12-11T06:55:41.566Z,33.09
2018-12-11T06:56:41.546Z,34.13
2018-12-11T06:57:41.527Z,35.36
2018-12-11T06:58:41.510Z,36.31
2018-12-11T06:59:41.491Z,37.54
2018-12-11T07:00:41.471Z,38.29
2018-12-11T07:01:41.454Z,38.76
2018-12-11T07:02:41.435Z,39.24
2018-12-11T07:03:41.417Z,39.81
2018-12-11T07:04:41.399Z,40.19
2018-12-11T07:05:41.381Z,40
2018-12-11T07:06:41.364Z,40.47
2018-12-11T07:07:41.346Z,40.75
2018-12-11T07:08:41.321Z,41.22
2018-12-11T07:09:41.304Z,41.79
2018-12-11T07:10:41.287Z,42.45
2018-12-11T07:11:41.269Z,42.74
2018-12-11T07:12:41.332Z,43.12
2018-12-11T07:13:41.229Z,43.4
2018-12-11T07:14:41.212Z,44.15
2018-12-11T07:15:41.192Z,45.39
2018-12-11T07:16:41.177Z,46.14
2018-12-11T07:17:41.156Z,46.04
2018-12-11T07:18:41.193Z,46.23
2018-12-11T07:19:41.116Z,47.09
2018-12-11T07:20:41.098Z,47.56
2018-12-11T07:21:41.084Z,47.47
2018-12-11T07:22:41.063Z,47.56
2018-12-11T07:23:41.044Z,47.47
2018-12-11T07:24:41.034Z,48.22
2018-12-11T07:25:41.006Z,48.13
2018-12-11T07:26:40.989Z,47.94
2018-12-11T07:27:40.973Z,48.79
2018-12-11T07:28:40.953Z,49.48
2018-12-11T07:29:40.935Z,49.85
2018-12-11T07:30:40.917Z,49.73
2018-12-11T07:31:40.895Z,49.92
2018-12-11T07:32:40.878Z,50.02
2018-12-11T07:33:40.858Z,50.33
2018-12-11T07:34:40.839Z,50.61
2018-12-11T07:35:40.573Z,50.49
2018-12-11T07:36:40.805Z,50.33
2018-12-11T07:37:40.785Z,51.65
2018-12-11T07:38:40.766Z,53.36
2018-12-11T07:39:40.748Z,54.68
2018-12-11T07:40:40.730Z,54.58
2018-12-11T07:41:40.710Z,54.02
2018-12-11T07:42:40.691Z,53.45
2018-12-11T07:43:40.673Z,52.5
2018-12-11T07:44:40.660Z,51.09
2018-12-11T07:45:40.635Z,50.33
2018-12-11T07:46:40.620Z,49.76
2018-12-11T07:47:40.598Z,49.76
2018-12-11T07:48:40.582Z,49.64
2018-12-11T07:49:40.561Z,48.63
2018-12-11T07:50:40.559Z,47.87
2018-12-11T07:51:40.527Z,46.55
2018-12-11T07:52:40.510Z,46.07
2018-12-11T07:53:40.494Z,45.1
2018-12-11T07:54:40.472Z,43.4
2018-12-11T07:55:40.453Z,42.55
2018-12-11T07:56:40.440Z,41.72
2018-12-11T07:57:40.414Z,40.56
2018-12-11T07:58:40.397Z,39.81
2018-12-11T07:59:40.378Z,38.67
2018-12-11T08:00:40.359Z,38.29
2018-12-11T08:01:40.342Z,38.2
2018-12-11T08:02:40.327Z,38.5
2018-12-11T08:03:40.304Z,38.76
2018-12-11T08:04:40.286Z,38.29
2018-12-11T08:05:40.019Z,38.03
2018-12-11T08:06:40.259Z,38.22
2018-12-11T08:07:40.230Z,38.31
2018-12-11T08:08:39.966Z,38.86
2018-12-11T08:09:40.193Z,39.33
2018-12-11T08:10:40.178Z,39.33
2018-12-11T08:11:40.162Z,39.26
2018-12-11T08:12:40.144Z,39.14
2018-12-11T08:13:40.119Z,39.24
2018-12-11T08:14:40.100Z,40.3
2018-12-11T08:15:40.084Z,40.58
2018-12-11T08:16:39.815Z,40.66
2018-12-11T08:17:40.058Z,41.06
2018-12-11T08:18:39.788Z,41.53
2018-12-11T08:19:40.012Z,41.7
2018-12-11T08:20:39.990Z,42.38
2018-12-11T08:21:39.971Z,43.8
2018-12-11T08:22:39.957Z,45.31
2018-12-11T08:23:39.938Z,48.15
2018-12-11T08:24:39.979Z,48.63
2018-12-11T08:25:39.904Z,49.95
2018-12-11T08:26:39.880Z,50.71
2018-12-11T08:27:39.862Z,52.31
2018-12-11T08:28:39.840Z,53.64
2018-12-11T08:29:39.841Z,54.77
2018-12-11T08:30:39.811Z,57.52
2018-12-11T08:31:39.787Z,60.74
2018-12-11T08:32:39.768Z,62.53
2018-12-11T08:33:39.503Z,63.76
2018-12-11T08:34:39.733Z,63.67
2018-12-11T08:35:39.729Z,64.61
2018-12-11T08:36:39.697Z,64.61
2018-12-11T08:37:39.676Z,64.42
2018-12-11T08:38:39.659Z,66.79
2018-12-11T08:39:39.641Z,67.26
2018-12-11T08:40:39.628Z,67.64
2018-12-11T08:41:39.606Z,68.59
2018-12-11T08:42:39.634Z,69.63
2018-12-11T08:43:39.566Z,70.29
2018-12-11T08:44:39.550Z,70.57
2018-12-11T08:45:39.539Z,69.34
2018-12-11T08:46:39.523Z,68.3
2018-12-11T08:47:39.494Z,68.3
2018-12-11T08:48:39.485Z,69.25
2018-12-11T08:49:39.460Z,70.2
2018-12-11T08:50:39.440Z,69.63
2018-12-11T08:51:39.422Z,69.15
2018-12-11T08:52:39.403Z,69.82
2018-12-11T08:53:39.142Z,70.01
2018-12-11T08:54:39.365Z,71.23
2018-12-11T08:55:39.350Z,73.41
2018-12-11T08:56:39.078Z,74.74
2018-12-11T08:57:39.311Z,75.31
2018-12-11T08:58:39.292Z,75.59
2018-12-11T08:59:39.276Z,75.49
2018-12-11T09:00:39.258Z,75.02
2018-12-11T09:01:39.241Z,75.59
2018-12-11T09:02:39.232Z,78.14
2018-12-11T09:03:39.202Z,80.88
2018-12-11T09:04:38.937Z,79.75
2018-12-11T09:05:39.167Z,79.56
2018-12-11T09:06:39.149Z,79.47
2018-12-11T09:07:39.131Z,79.18
2018-12-11T09:08:39.110Z,79.75
2018-12-11T09:09:39.094Z,82.87
2018-12-11T09:10:39.073Z,82.02
2018-12-11T09:11:39.056Z,81.83
2018-12-11T09:12:39.038Z,82.31
2018-12-11T09:13:39.025Z,83.15
2018-12-11T09:14:39.001Z,82.12
2018-12-11T09:15:38.984Z,81.83
2018-12-11T09:16:38.965Z,81.07
2018-12-11T09:17:38.949Z,80.04
2018-12-11T09:18:38.679Z,80.04
2018-12-11T09:19:38.912Z,80.22
2018-12-11T09:20:38.890Z,82.59
2018-12-11T09:21:38.872Z,83.91
2018-12-11T09:22:38.872Z,84.67
2018-12-11T09:23:38.839Z,87.98
2018-12-11T09:24:38.824Z,88.17
2018-12-11T09:25:38.808Z,88.45
2018-12-11T09:26:38.785Z,87.98
2018-12-11T09:27:38.767Z,88.55
2018-12-11T09:28:38.749Z,88.64
2018-12-11T09:29:38.732Z,87.88
2018-12-11T09:30:38.715Z,87.13
2018-12-11T09:31:38.698Z,86.18
2018-12-11T09:32:38.678Z,86.75
2018-12-11T09:33:38.658Z,86.85
2018-12-11T09:34:38.645Z,89.02
2018-12-11T09:35:38.620Z,90.06
2018-12-11T09:36:38.605Z,88.83
2018-12-11T09:37:38.583Z,91.1
2018-12-11T09:38:38.566Z,96.21
2018-12-11T09:39:38.549Z,96.12
2018-12-11T09:40:38.532Z,95.55
2018-12-11T09:41:38.512Z,94.51
2018-12-11T09:42:38.493Z,95.55
2018-12-11T09:43:38.474Z,94.51
2018-12-11T09:44:38.460Z,95.36
2018-12-11T09:45:38.192Z,95.36
2018-12-11T09:46:38.440Z,96.02
2018-12-11T09:47:38.402Z,97.06
2018-12-11T09:48:38.387Z,99.52
2018-12-11T09:49:38.374Z,99.99
2018-12-11T09:50:38.359Z,99.99
2018-12-11T09:51:38.337Z,99.33
2018-12-11T09:52:38.315Z,97.82
2018-12-11T09:53:38.300Z,96.78
2018-12-11T09:54:38.279Z,96.12
2018-12-11T09:55:38.260Z,96.59
2018-12-11T09:56:38.247Z,95.26
2018-12-11T09:57:38.223Z,93.94
2018-12-11T09:58:38.206Z,93.75
2018-12-11T09:59:38.188Z,94.42
2018-12-11T10:00:38.240Z,94.13
2018-12-11T10:01:38.152Z,93.66
2018-12-11T10:02:38.134Z,93.75
2018-12-11T10:03:38.292Z,93.56
2018-12-11T10:04:38.099Z,93.56
2018-12-11T10:05:38.081Z,92.14
2018-12-11T10:06:38.066Z,92.24
2018-12-11T10:07:38.045Z,93.28
2018-12-11T10:08:38.026Z,94.42
2018-12-11T10:09:38.009Z,94.51
2018-12-11T10:10:37.991Z,94.6
2018-12-11T10:11:37.969Z,93.66
2018-12-11T10:12:37.953Z,92.43
2018-12-11T10:13:37.937Z,92.33
2018-12-11T10:14:37.918Z,91.67
2018-12-11T10:15:37.900Z,90.82
2018-12-11T10:16:37.879Z,90.06
2018-12-11T10:17:37.616Z,90.16
2018-12-11T10:18:37.844Z,89.87
2018-12-11T10:19:37.827Z,90.53
2018-12-11T10:20:37.876Z,91.48
2018-12-11T10:21:37.793Z,92.14
2018-12-11T10:22:37.521Z,92.52
2018-12-11T10:23:37.761Z,91.86
2018-12-11T10:24:37.743Z,90.82
2018-12-11T10:25:37.721Z,90.34
2018-12-11T10:26:37.843Z,92.14
2018-12-11T10:27:37.684Z,95.74
2018-12-11T10:28:37.661Z,95.17
2018-12-11T10:29:37.644Z,94.42
2018-12-11T10:30:37.632Z,94.79
2018-12-11T10:31:37.607Z,93.66
2018-12-11T10:32:37.349Z,94.51
2018-12-11T10:33:37.575Z,95.83
2018-12-11T10:34:37.581Z,97.91
2018-12-11T10:35:37.535Z,97.91
2018-12-11T10:36:37.516Z,96.78
2018-12-11T10:37:37.498Z,95.64
2018-12-11T10:38:37.484Z,96.78
2018-12-11T10:39:37.465Z,98.2
2018-12-11T10:40:37.444Z,96.78
2018-12-11T10:41:37.485Z,97.34
2018-12-11T10:42:37.159Z,96.78
2018-12-11T10:43:37.395Z,94.51
2018-12-11T10:44:37.375Z,93.28
2018-12-11T10:45:37.357Z,92.52
2018-12-11T10:46:37.378Z,92.61
2018-12-11T10:47:37.069Z,92.99
2018-12-11T10:48:37.306Z,91.29
2018-12-11T10:49:37.283Z,90.72
2018-12-11T10:50:37.259Z,89.87
2018-12-11T10:51:37.253Z,88.17
2018-12-11T10:52:37.226Z,86.56
2018-12-11T10:53:37.204Z,87.41
2018-12-11T10:54:37.193Z,88.93
2018-12-11T10:55:36.921Z,90.25
2018-12-11T10:56:37.152Z,90.25
2018-12-11T10:57:37.135Z,88.17
2018-12-11T10:58:37.114Z,88.55
2018-12-11T10:59:37.097Z,89.59
2018-12-11T11:00:36.832Z,89.78
2018-12-11T11:01:37.062Z,88.55
2018-12-11T11:02:37.043Z,87.13
2018-12-11T11:03:37.029Z,86.94
2018-12-11T11:04:37.005Z,88.74
2018-12-11T11:05:37.001Z,88.83
2018-12-11T11:06:36.968Z,88.83
2018-12-11T11:07:36.952Z,88.36
2018-12-11T11:08:36.939Z,87.98
2018-12-11T11:09:36.931Z,89.69
2018-12-11T11:10:36.913Z,89.78
2018-12-11T11:11:36.892Z,91.2
2018-12-11T11:12:36.896Z,92.52
2018-12-11T11:13:36.840Z,91.96
2018-12-11T11:14:36.623Z,91.29
2018-12-11T11:15:36.854Z,90.63
2018-12-11T11:16:36.540Z,89.78
2018-12-11T11:17:36.768Z,90.34
2018-12-11T11:18:36.509Z,90.06
2018-12-11T11:19:36.739Z,90.72
2018-12-11T11:20:36.715Z,90.06
2018-12-11T11:21:36.698Z,90.91
2018-12-11T11:22:36.678Z,92.61
2018-12-11T11:23:36.658Z,92.52
2018-12-11T11:24:36.645Z,91.86
2018-12-11T11:25:36.622Z,91.2
2018-12-11T11:26:36.602Z,90.63
2018-12-11T11:27:37.831Z,90.82
2018-12-11T11:28:36.319Z,93.75
2018-12-11T11:29:36.548Z,94.32
2018-12-11T11:30:36.530Z,93.85
2018-12-11T11:31:36.513Z,92.99
2018-12-11T11:32:36.497Z,93.47
2018-12-11T11:33:36.477Z,94.51
2018-12-11T11:34:36.461Z,94.23
2018-12-11T11:35:36.191Z,94.23
2018-12-11T11:36:36.420Z,94.51
2018-12-11T11:37:36.403Z,94.51
2018-12-11T11:38:36.383Z,93.47
2018-12-11T11:39:36.367Z,94.6
2018-12-11T11:40:36.347Z,96.69
2018-12-11T11:41:36.328Z,96.12
2018-12-11T11:42:36.314Z,96.59
2018-12-11T11:43:36.297Z,96.02
2018-12-11T11:44:36.275Z,96.5
2018-12-11T11:45:36.258Z,94.51
2018-12-11T11:46:36.236Z,93.94
2018-12-11T11:47:36.221Z,94.7
2018-12-11T11:48:36.201Z,94.32
2018-12-11T11:49:36.183Z,93.56
2018-12-11T11:50:36.167Z,92.33
2018-12-11T11:51:36.146Z,91.77
2018-12-11T11:52:36.129Z,93.56
2018-12-11T11:53:36.109Z,93.09
2018-12-11T11:54:36.090Z,92.24
2018-12-11T11:55:36.071Z,91.77
2018-12-11T11:56:36.059Z,91.2
2018-12-11T11:57:36.036Z,89.78
2018-12-11T11:58:36.020Z,89.5
2018-12-11T11:59:35.998Z,90.06
2018-12-11T12:00:35.982Z,89.12
2018-12-11T12:01:35.714Z,87.41
2018-12-11T12:02:36.010Z,85.71
2018-12-11T12:03:35.930Z,84.48
2018-12-11T12:04:35.906Z,84.48
2018-12-11T12:05:35.891Z,84.86
2018-12-11T12:06:35.871Z,84.48
2018-12-11T12:07:35.853Z,84.01
2018-12-11T12:08:35.833Z,84.39
2018-12-11T12:09:35.567Z,84.01
2018-12-11T12:10:35.799Z,83.91
2018-12-11T12:11:35.530Z,83.34
2018-12-11T12:12:36.861Z,81.64
2018-12-11T12:13:35.742Z,81.64
2018-12-11T12:14:35.476Z,82.68
2018-12-11T12:15:35.706Z,82.5
2018-12-11T12:16:35.439Z,82.02
2018-12-11T12:17:35.670Z,82.87
2018-12-11T12:18:35.650Z,82.12
2018-12-11T12:19:35.634Z,81.83
2018-12-11T12:20:35.614Z,81.93
2018-12-11T12:21:35.403Z,81.93
2018-12-11T12:22:35.579Z,81.36
2018-12-11T12:23:35.567Z,80.79
2018-12-11T12:24:35.542Z,80.51
2018-12-11T12:25:35.525Z,79.94
2018-12-11T12:26:35.506Z,79.56
2018-12-11T12:27:35.496Z,79.66
2018-12-11T12:28:35.470Z,78.52
2018-12-11T12:29:35.447Z,78.33
2018-12-11T12:30:35.433Z,77.48
2018-12-11T12:31:35.415Z,76.53
2018-12-11T12:32:35.394Z,75.4
2018-12-11T12:33:35.380Z,74.93
2018-12-11T12:34:35.110Z,75.31
2018-12-11T12:35:35.343Z,74.83
2018-12-11T12:36:35.321Z,74.07
2018-12-11T12:37:35.302Z,73.41
2018-12-11T12:38:35.289Z,72.18
2018-12-11T12:39:35.267Z,72.18
2018-12-11T12:40:35.250Z,72.18
2018-12-11T12:41:35.230Z,72.18
2018-12-11T12:42:35.211Z,71.33
2018-12-11T12:43:35.194Z,69.82
2018-12-11T12:44:35.173Z,69.06
2018-12-11T12:45:35.154Z,67.55
2018-12-11T12:46:35.138Z,66.41
2018-12-11T12:47:35.120Z,65.47
2018-12-11T12:48:34.853Z,66.22
2018-12-11T12:49:35.084Z,66.5
2018-12-11T12:50:35.064Z,66.22
2018-12-11T12:51:35.048Z,65.66
2018-12-11T12:52:35.029Z,65.09
2018-12-11T12:53:35.013Z,64.23
2018-12-11T12:54:34.743Z,64.14
2018-12-11T12:55:34.977Z,63.1
2018-12-11T12:56:34.974Z,62.15
2018-12-11T12:57:34.933Z,61.77